Time;durP1;ratioP1;P1;durP2;ratioP2;P2;SDS_P1;SDS_P2;PMS_P1;PMS_P2;Temp;Humidity;BMP_temperature;BMP_pressure;BME280_temperature;BME280_humidity;BME280_pressure;Samples;Min_cycle;Max_cycle;Signal;HPM_P1;HPM_P2
2023/08/15 00:01:02;;;;;;;;;;;;;;;29.04;46.16;96905.91;4219337;28;5665;-66
2023/08/15 00:03:04;;;;;;;;;;;;;;;29.04;46.02;96896.91;4219055;28;5752;-66
2023/08/15 00:05:08;;;;;;;;;;;;;;;29.01;46.25;96900.28;4218765;28;5835;-67
2023/08/15 00:07:11;;;;;;;;;;;;;;;28.98;46.42;96899.75;4209728;28;5224;-67
2023/08/15 00:09:16;;;;;;;;;;;;;;;28.99;46.64;96901.38;4209379;28;5776;-68
2023/08/15 00:11:19;;;;;;;;;;;;;;;28.98;46.66;96902.47;4210826;28;5693;-67
2023/08/15 00:13:21;;;;;;;;;;;;;;;28.97;46.87;96900.88;4218501;28;5686;-67
2023/08/15 00:15:24;;;;;;;;;;;;;;;28.98;46.77;96883.44;4218507;28;5776;-66
2023/08/15 00:17:27;;;;;;;;;;;;;;;28.97;46.83;96879.09;4218777;28;5859;-67
2023/08/15 00:19:30;;;;;;;;;;;;;;;28.97;47.38;96878.28;4218188;28;5680;-66
2023/08/15 00:21:33;;;;;;;;;;;;;;;28.97;47.01;96879.09;4217682;28;5673;-66
2023/08/15 00:23:36;;;;;;;;;;;;;;;28.96;47.50;96880.22;4218474;28;5669;-66
2023/08/15 00:25:42;;;;;;;;;;;;;;;28.95;47.44;96873.16;4218751;28;5705;-66
2023/08/15 00:27:45;;;;;;;;;;;;;;;28.95;47.53;96875.88;4218351;28;6343;-67
2023/08/15 00:29:49;;;;;;;;;;;;;;;28.94;47.58;96868.84;4218541;28;5689;-67
2023/08/15 00:31:52;;;;;;;;;;;;;;;28.95;47.57;96875.88;4218741;28;5698;-66
2023/08/15 00:33:55;;;;;;;;;;;;;;;28.95;47.56;96870.44;4215797;28;5851;-67
2023/08/15 00:35:58;;;;;;;;;;;;;;;28.97;47.84;96872.84;4215889;28;5798;-67
2023/08/15 00:38:00;;;;;;;;;;;;;;;28.97;47.72;96876.38;4215975;28;5661;-67
2023/08/15 00:40:05;;;;;;;;;;;;;;;28.97;47.71;96884.53;4218062;28;5696;-66
2023/08/15 00:42:09;;;;;;;;;;;;;;;28.97;47.77;96884.53;4218277;28;5777;-67
2023/08/15 00:44:12;;;;;;;;;;;;;;;28.96;47.76;96888.38;4218430;28;5674;-67
2023/08/15 00:46:17;;;;;;;;;;;;;;;28.97;47.79;96891.91;4218004;28;5753;-67
2023/08/15 00:48:20;;;;;;;;;;;;;;;28.98;47.93;96890.78;4218220;28;5853;-66
2023/08/15 00:50:24;;;;;;;;;;;;;;;28.95;48.08;96884.06;4217985;28;5678;-66
2023/08/15 00:52:28;;;;;;;;;;;;;;;28.93;48.17;96891.72;4217982;28;5749;-66
2023/08/15 00:54:31;;;;;;;;;;;;;;;28.91;48.14;96891.22;4217664;28;5804;-67
2023/08/15 00:56:34;;;;;;;;;;;;;;;28.90;48.17;96891.56;4218138;28;5670;-66
2023/08/15 00:58:39;;;;;;;;;;;;;;;28.88;48.23;96891.84;4217949;28;5672;-66
2023/08/15 01:00:42;;;;;;;;;;;;;;;28.87;48.21;96890.19;4217978;28;5759;-67
2023/08/15 01:02:45;;;;;;;;;;;;;;;28.86;48.11;96899.47;4218065;28;5810;-66
2023/08/15 01:04:49;;;;;;;;;;;;;;;28.84;48.04;96893.53;4218170;28;5767;-67
2023/08/15 01:06:53;;;;;;;;;;;;;;;28.84;48.10;96895.47;4217281;28;5665;-67
2023/08/15 01:08:58;;;;;;;;;;;;;;;28.82;48.00;96895.78;4217731;28;5662;-67
2023/08/15 01:11:02;;;;;;;;;;;;;;;28.82;48.02;96898.50;4217203;28;5692;-66
2023/08/15 01:13:10;;;;;;;;;;;;;;;28.80;47.90;96892.56;4217820;28;5769;-66
2023/08/15 01:15:17;;;;;;;;;;;;;;;28.80;47.84;96897.19;4217991;28;5684;-66
2023/08/15 01:17:28;;;;;;;;;;;;;;;28.76;47.88;96883.38;4205942;28;6389;-66
2023/08/15 01:19:39;;;;;;;;;;;;;;;28.77;47.77;96884.19;4217741;28;5728;-66
2023/08/15 01:21:48;;;;;;;;;;;;;;;28.76;47.62;96886.09;4217689;28;6363;-66
2023/08/15 01:23:54;;;;;;;;;;;;;;;28.76;47.72;96879.84;4217654;28;5689;-66
2023/08/15 01:25:57;;;;;;;;;;;;;;;28.74;47.65;96885.59;4217863;28;5785;-66
2023/08/15 01:28:00;;;;;;;;;;;;;;;28.72;47.39;96885.13;4216890;28;5664;-66
2023/08/15 01:30:03;;;;;;;;;;;;;;;28.68;47.42;96879.50;4217444;28;5684;-66
2023/08/15 01:32:14;;;;;;;;;;;;;;;28.67;47.61;96877.91;4217627;28;5776;-66
2023/08/15 01:34:22;;;;;;;;;;;;;;;28.67;47.13;96880.63;4217652;28;5677;-66
2023/08/15 01:36:32;;;;;;;;;;;;;;;28.67;47.21;96868.94;4215583;28;5705;-66
2023/08/15 01:38:40;;;;;;;;;;;;;;;28.66;47.41;96868.13;4216569;28;5826;-66
2023/08/15 01:40:49;;;;;;;;;;;;;;;28.65;47.36;96866.53;4216966;28;5681;-67
2023/08/15 01:42:55;;;;;;;;;;;;;;;28.63;47.29;96879.59;4217476;28;5693;-66
2023/08/15 01:45:01;;;;;;;;;;;;;;;28.63;47.21;96874.16;4217145;28;5685;-66
2023/08/15 01:47:04;;;;;;;;;;;;;;;28.62;47.46;96885.34;4217347;28;5677;-66
2023/08/15 01:49:07;;;;;;;;;;;;;;;28.60;47.30;96880.22;4217353;28;5786;-66
2023/08/15 01:51:10;;;;;;;;;;;;;;;28.60;47.44;96884.84;4217981;28;5657;-66
2023/08/15 01:53:13;;;;;;;;;;;;;;;28.59;47.20;96886.78;4217107;28;5673;-66
2023/08/15 01:55:16;;;;;;;;;;;;;;;28.57;47.38;96883.56;4216989;28;5718;-67
2023/08/15 01:57:20;;;;;;;;;;;;;;;28.57;47.45;96880.03;4209180;28;5740;-66
2023/08/15 01:59:23;;;;;;;;;;;;;;;28.58;47.53;96887.09;4217639;28;5689;-66
2023/08/15 02:01:26;;;;;;;;;;;;;;;28.56;47.42;96886.59;4217443;28;5785;-66
2023/08/15 02:03:28;;;;;;;;;;;;;;;28.55;47.53;96885.78;4217178;28;5681;-66
2023/08/15 02:05:31;;;;;;;;;;;;;;;28.55;47.56;96885.00;4216976;28;5677;-67
2023/08/15 02:07:37;;;;;;;;;;;;;;;28.54;47.41;96881.47;4217425;28;6614;-66
2023/08/15 02:09:40;;;;;;;;;;;;;;;28.54;47.60;96876.03;4216710;28;5792;-67
2023/08/15 02:11:43;;;;;;;;;;;;;;;28.52;47.55;96875.50;4216993;28;5903;-66
2023/08/15 02:13:48;;;;;;;;;;;;;;;28.50;47.47;96868.78;4217289;28;5665;-66
2023/08/15 02:15:51;;;;;;;;;;;;;;;28.49;47.63;96873.41;4216740;28;5785;-67
2023/08/15 02:17:54;;;;;;;;;;;;;;;28.48;47.65;96871.78;4217370;28;5563;-66
2023/08/15 02:19:57;;;;;;;;;;;;;;;28.47;47.69;96875.63;4217173;28;5823;-66
2023/08/15 02:22:00;;;;;;;;;;;;;;;28.46;47.74;96863.16;4217501;28;5680;-66
2023/08/15 02:24:03;;;;;;;;;;;;;;;28.46;47.77;96865.06;4220163;28;5698;-67
2023/08/15 02:26:06;;;;;;;;;;;;;;;28.46;47.82;96863.16;4220594;28;5673;-66
2023/08/15 02:28:08;;;;;;;;;;;;;;;28.44;47.77;96859.94;4220361;28;6001;-67
2023/08/15 02:30:13;;;;;;;;;;;;;;;28.42;47.79;96854.78;4220505;28;5748;-67
2023/08/15 02:32:16;;;;;;;;;;;;;;;28.39;47.74;96849.97;4220152;28;5642;-67
2023/08/15 02:34:19;;;;;;;;;;;;;;;28.39;47.91;96855.41;4220192;28;5780;-67
2023/08/15 02:36:22;;;;;;;;;;;;;;;28.39;47.86;96857.31;4220143;28;5665;-67
2023/08/15 02:38:25;;;;;;;;;;;;;;;28.38;47.81;96855.72;4220217;28;5764;-67
2023/08/15 02:40:29;;;;;;;;;;;;;;;28.36;47.84;96858.75;4220313;28;6496;-67
2023/08/15 02:42:32;;;;;;;;;;;;;;;28.35;48.17;96857.13;4220192;28;5690;-67
2023/08/15 02:44:34;;;;;;;;;;;;;;;28.35;47.84;96857.13;4220180;28;5759;-66
2023/08/15 02:46:39;;;;;;;;;;;;;;;28.34;47.85;96858.25;4214921;28;5694;-66
2023/08/15 02:48:42;;;;;;;;;;;;;;;28.34;47.78;96852.81;4219988;28;5786;-66
2023/08/15 02:50:45;;;;;;;;;;;;;;;28.33;47.69;96853.91;4219966;28;5783;-66
2023/08/15 02:52:48;;;;;;;;;;;;;;;28.33;47.70;96864.00;4220441;28;5666;-67
2023/08/15 02:54:51;;;;;;;;;;;;;;;28.31;47.72;96855.31;4220048;28;5673;-66
2023/08/15 02:56:54;;;;;;;;;;;;;;;28.29;47.70;96847.47;4220155;28;5673;-66
2023/08/15 02:58:56;;;;;;;;;;;;;;;28.30;47.88;96842.84;4220284;28;5824;-67
2023/08/15 03:00:59;;;;;;;;;;;;;;;28.30;47.66;96843.63;4220214;28;5681;-67
2023/08/15 03:03:04;;;;;;;;;;;;;;;28.30;47.58;96848.28;4219970;28;5666;-66
2023/08/15 03:05:08;;;;;;;;;;;;;;;28.30;47.45;96849.06;4219712;28;5774;-66
2023/08/15 03:07:11;;;;;;;;;;;;;;;28.28;47.74;96843.13;4219981;28;5736;-66
2023/08/15 03:09:14;;;;;;;;;;;;;;;28.28;47.63;96845.06;4219568;28;5677;-66
2023/08/15 03:11:17;;;;;;;;;;;;;;;28.28;47.61;96847.78;4220239;28;5693;-66
2023/08/15 03:13:20;;;;;;;;;;;;;;;28.27;47.50;96849.69;4220030;28;5764;-66
2023/08/15 03:15:22;;;;;;;;;;;;;;;28.26;47.50;96837.19;4219632;28;5827;-66
2023/08/15 03:17:25;;;;;;;;;;;;;;;28.25;47.51;96841.00;4219651;28;5685;-66
2023/08/15 03:19:30;;;;;;;;;;;;;;;28.25;47.46;96846.44;4219535;28;7210;-66
2023/08/15 03:21:33;;;;;;;;;;;;;;;28.24;47.45;96844.84;4219619;28;5865;-66
2023/08/15 03:23:37;;;;;;;;;;;;;;;28.23;47.27;96854.09;4219232;28;5908;-67
2023/08/15 03:25:39;;;;;;;;;;;;;;;28.24;47.17;96849.47;4219905;28;5676;-67
2023/08/15 03:27:41;;;;;;;;;;;;;;;28.22;47.15;96852.50;4219859;28;5779;-67
2023/08/15 03:29:44;;;;;;;;;;;;;;;28.20;47.07;96854.72;4219328;28;5669;-67
2023/08/15 03:31:48;;;;;;;;;;;;;;;28.20;46.78;96857.44;4219497;28;5894;-67
2023/08/15 03:33:50;;;;;;;;;;;;;;;28.19;46.85;96853.09;4218983;28;5680;-67
2023/08/15 03:35:55;;;;;;;;;;;;;;;28.18;46.76;96851.47;4209592;28;5696;-67
2023/08/15 03:37:57;;;;;;;;;;;;;;;28.18;46.79;96856.91;4219427;28;5146;-66
2023/08/15 03:39:59;;;;;;;;;;;;;;;28.17;46.60;96846.34;4219656;28;5657;-67
2023/08/15 03:42:02;;;;;;;;;;;;;;;28.17;46.46;96851.78;4209577;28;5704;-67
2023/08/15 03:44:06;;;;;;;;;;;;;;;28.14;46.35;96848.59;4219430;28;5775;-67
2023/08/15 03:46:09;;;;;;;;;;;;;;;28.14;46.42;96854.03;4219235;28;5862;-67
2023/08/15 03:48:12;;;;;;;;;;;;;;;28.13;46.53;96857.03;4219131;28;5811;-67
2023/08/15 03:50:15;;;;;;;;;;;;;;;28.12;46.40;96855.44;4219083;28;5688;-66
2023/08/15 03:52:19;;;;;;;;;;;;;;;28.10;46.36;96860.38;4219175;28;5685;-67
2023/08/15 03:54:22;;;;;;;;;;;;;;;28.09;46.38;96866.94;4218560;28;5777;-67
2023/08/15 03:56:24;;;;;;;;;;;;;;;28.09;46.42;96870.44;4218050;28;6302;-66
2023/08/15 03:58:27;;;;;;;;;;;;;;;28.09;46.30;96872.34;4219117;28;5853;-66
2023/08/15 04:00:30;;;;;;;;;;;;;;;28.07;46.29;96867.19;4218751;28;5871;-66
2023/08/15 04:02:33;;;;;;;;;;;;;;;28.08;46.36;96878.88;4219507;28;5670;-66
2023/08/15 04:04:35;;;;;;;;;;;;;;;28.08;46.18;96874.25;4219141;28;5771;-66
2023/08/15 04:06:37;;;;;;;;;;;;;;;28.08;46.22;96876.16;4218772;28;5346;-66
2023/08/15 04:08:42;;;;;;;;;;;;;;;28.07;46.29;96878.06;4218618;28;5782;-66
2023/08/15 04:10:46;;;;;;;;;;;;;;;28.08;46.42;96887.03;4218809;28;5782;-67
2023/08/15 04:13:09;;;;;;;;;;;;;;;28.09;46.43;96894.09;4202695;28;5796;-67
2023/08/15 04:15:32;;;;;;;;;;;;;;;28.08;46.68;96887.81;4212536;28;5744;-67
2023/08/15 04:17:35;;;;;;;;;;;;;;;28.08;46.75;96885.09;4218574;28;5899;-66
2023/08/15 04:19:38;;;;;;;;;;;;;;;28.09;46.85;96880.50;4218977;28;5693;-67
2023/08/15 04:21:41;;;;;;;;;;;;;;;28.07;46.74;96882.69;4218774;28;5681;-67
2023/08/15 04:23:46;;;;;;;;;;;;;;;28.06;46.95;96881.91;4218257;28;6423;-67
2023/08/15 04:25:48;;;;;;;;;;;;;;;28.08;46.97;96884.31;4218576;28;5693;-66
2023/08/15 04:27:51;;;;;;;;;;;;;;;28.09;46.93;96888.66;4218513;28;5669;-66
2023/08/15 04:29:55;;;;;;;;;;;;;;;28.08;46.98;96893.25;4218388;28;5725;-67
2023/08/15 04:31:58;;;;;;;;;;;;;;;28.10;47.09;96898.41;4218662;28;5686;-67
2023/08/15 04:34:01;;;;;;;;;;;;;;;28.11;46.85;96902.75;4218512;28;5689;-66
2023/08/15 04:36:04;;;;;;;;;;;;;;;28.11;46.98;96900.03;4212670;28;5686;-67
2023/08/15 04:38:06;;;;;;;;;;;;;;;28.11;46.91;96911.69;4212229;28;5916;-66
2023/08/15 04:40:13;;;;;;;;;;;;;;;28.11;46.75;96922.56;4217130;28;6378;-67
2023/08/15 04:42:16;;;;;;;;;;;;;;;28.11;46.72;96927.22;4212278;28;5859;-67
2023/08/15 04:44:19;;;;;;;;;;;;;;;28.10;46.60;96931.03;4214664;28;5715;-66
2023/08/15 04:46:22;;;;;;;;;;;;;;;28.09;46.57;96929.44;4217212;28;5799;-67
2023/08/15 04:48:25;;;;;;;;;;;;;;;28.08;46.66;96928.59;4212213;28;5781;-67
2023/08/15 04:50:28;;;;;;;;;;;;;;;28.08;46.45;96936.75;4216304;28;5665;-67
2023/08/15 04:52:31;;;;;;;;;;;;;;;28.09;46.49;96945.72;4214167;28;5686;-66
2023/08/15 04:54:34;;;;;;;;;;;;;;;28.08;46.56;96949.53;4216768;28;5704;-67
2023/08/15 04:56:38;;;;;;;;;;;;;;;28.08;46.63;96949.53;4216128;28;6071;-66
2023/08/15 04:58:41;;;;;;;;;;;;;;;28.08;46.52;96957.69;4212755;28;5677;-66
2023/08/15 05:00:44;;;;;;;;;;;;;;;28.09;47.19;96959.31;4213877;28;5664;-67
2023/08/15 05:02:47;;;;;;;;;;;;;;;28.08;47.01;96960.41;4207084;28;5688;-66
2023/08/15 05:04:50;;;;;;;;;;;;;;;28.08;46.92;96963.13;4211768;28;5702;-67
2023/08/15 05:06:53;;;;;;;;;;;;;;;28.09;47.25;96970.19;4217203;28;5819;-66
2023/08/15 05:08:56;;;;;;;;;;;;;;;28.09;47.41;96967.47;4211177;28;5625;-66
2023/08/15 05:11:00;;;;;;;;;;;;;;;28.10;47.44;96985.38;4214335;28;5661;-67
2023/08/15 05:13:04;;;;;;;;;;;;;;;28.10;47.65;96977.22;4211848;28;5677;-66
2023/08/15 05:15:09;;;;;;;;;;;;;;;28.10;47.82;96988.09;4214386;28;5680;-67
2023/08/15 05:17:12;;;;;;;;;;;;;;;28.11;48.02;96987.00;4208088;28;5086;-66
2023/08/15 05:19:15;;;;;;;;;;;;;;;28.10;48.17;96985.38;4216374;28;6430;-67
2023/08/15 05:21:18;;;;;;;;;;;;;;;28.09;48.42;96994.66;4207560;28;5833;-67
2023/08/15 05:23:21;;;;;;;;;;;;;;;28.11;48.54;96990.53;4205601;28;6008;-67
2023/08/15 05:25:23;;;;;;;;;;;;;;;28.11;48.77;96997.88;4203831;28;5788;-66
2023/08/15 05:27:29;;;;;;;;;;;;;;;28.10;48.92;97004.41;4208914;28;5816;-66
2023/08/15 05:29:33;;;;;;;;;;;;;;;28.10;48.76;96998.97;4208886;28;5736;-67
2023/08/15 05:31:35;;;;;;;;;;;;;;;28.09;48.90;97006.31;4204048;28;5165;-67
2023/08/15 05:33:38;;;;;;;;;;;;;;;28.08;48.90;97003.88;4201537;28;5764;-67
2023/08/15 05:35:41;;;;;;;;;;;;;;;28.07;48.92;97011.22;4205209;28;5816;-67
2023/08/15 05:37:44;;;;;;;;;;;;;;;28.05;49.07;97012.63;4203277;28;5716;-67
2023/08/15 05:39:47;;;;;;;;;;;;;;;28.04;49.02;97014.56;4204957;28;5789;-66
2023/08/15 05:41:50;;;;;;;;;;;;;;;28.06;49.13;97020.50;4204405;28;6177;-67
2023/08/15 05:43:53;;;;;;;;;;;;;;;28.09;49.13;97021.81;4202003;28;5772;-67
2023/08/15 05:45:57;;;;;;;;;;;;;;;28.11;49.09;97027.75;4202988;28;6255;-67
2023/08/15 05:48:00;;;;;;;;;;;;;;;28.12;49.12;97029.38;4208661;28;5771;-67
2023/08/15 05:50:03;;;;;;;;;;;;;;;28.13;48.87;97029.06;4214300;28;5648;-68
2023/08/15 05:52:06;;;;;;;;;;;;;;;28.12;49.05;97032.91;4216428;28;5808;-67
2023/08/15 05:54:09;;;;;;;;;;;;;;;28.13;49.24;97039.94;4216527;28;7854;-68
2023/08/15 05:56:12;;;;;;;;;;;;;;;28.14;49.06;97036.13;4217322;28;5683;-68
2023/08/15 05:58:15;;;;;;;;;;;;;;;28.15;49.03;97034.19;4216393;28;5665;-69
2023/08/15 06:00:18;;;;;;;;;;;;;;;28.16;48.97;97043.97;4207235;28;6213;-68
2023/08/15 06:02:22;;;;;;;;;;;;;;;28.17;49.08;97045.56;4215603;28;5661;-68
2023/08/15 06:04:26;;;;;;;;;;;;;;;28.18;48.92;97047.19;4216845;28;6524;-67
2023/08/15 06:06:28;;;;;;;;;;;;;;;28.19;48.89;97053.41;4216851;28;5688;-68
2023/08/15 06:08:31;;;;;;;;;;;;;;;28.19;48.88;97061.56;4206079;28;5794;-67
2023/08/15 06:10:34;;;;;;;;;;;;;;;28.16;48.97;97068.41;4199509;28;5791;-68
2023/08/15 06:12:36;;;;;;;;;;;;;;;28.15;49.10;97080.41;4195901;28;5706;-67
2023/08/15 06:14:41;;;;;;;;;;;;;;;28.16;49.02;97081.22;4212012;28;5682;-68
2023/08/15 06:16:43;;;;;;;;;;;;;;;28.19;49.09;97092.28;4213045;28;5681;-68
2023/08/15 06:18:49;;;;;;;;;;;;;;;28.21;49.05;97090.09;4212037;28;5758;-68
2023/08/15 06:20:52;;;;;;;;;;;;;;;28.23;49.05;97098.75;4204733;28;5673;-67
2023/08/15 06:22:55;;;;;;;;;;;;;;;28.22;48.94;97099.84;4208702;28;6530;-67
2023/08/15 06:24:58;;;;;;;;;;;;;;;28.22;49.01;97093.63;4202604;28;6531;-68
2023/08/15 06:27:01;;;;;;;;;;;;;;;28.20;49.12;97093.91;4195075;28;5723;-68
2023/08/15 06:29:04;;;;;;;;;;;;;;;28.21;48.94;97095.53;4207003;28;7035;-68
2023/08/15 06:31:07;;;;;;;;;;;;;;;28.22;49.25;97101.78;4192458;28;5873;-68
2023/08/15 06:33:10;;;;;;;;;;;;;;;28.20;49.12;97093.09;4200100;28;5715;-68
2023/08/15 06:35:14;;;;;;;;;;;;;;;28.22;49.05;97096.34;4191013;28;5834;-68
2023/08/15 06:37:17;;;;;;;;;;;;;;;28.23;49.14;97101.47;4198699;28;5822;-68
2023/08/15 06:39:20;;;;;;;;;;;;;;;28.23;49.12;97098.75;4199458;28;5907;-68
2023/08/15 06:41:23;;;;;;;;;;;;;;;28.22;49.39;97108.00;4208578;28;5788;-69
2023/08/15 06:43:26;;;;;;;;;;;;;;;28.24;49.06;97103.06;4216073;28;5677;-68
2023/08/15 06:45:29;;;;;;;;;;;;;;;28.27;49.26;97105.22;4206005;28;5742;-68
2023/08/15 06:47:32;;;;;;;;;;;;;;;28.27;49.20;97105.22;4191207;28;5699;-67
2023/08/15 06:49:35;;;;;;;;;;;;;;;28.28;49.40;97100.59;4205390;28;5642;-68
2023/08/15 06:51:39;;;;;;;;;;;;;;;28.29;49.26;97100.28;4188006;28;5990;-68
2023/08/15 06:53:44;;;;;;;;;;;;;;;28.33;49.34;97108.66;4187151;28;5690;-68
2023/08/15 06:55:49;;;;;;;;;;;;;;;28.35;49.44;97101.81;4199801;28;5770;-67
2023/08/15 06:57:52;;;;;;;;;;;;;;;28.36;49.39;97097.19;4199466;28;5703;-67
2023/08/15 06:59:55;;;;;;;;;;;;;;;28.40;49.22;97109.06;4204957;28;5750;-69
2023/08/15 07:01:58;;;;;;;;;;;;;;;28.40;49.25;97115.31;4210015;28;5832;-68
2023/08/15 07:04:01;;;;;;;;;;;;;;;28.39;49.22;97105.53;4199456;28;5726;-68
2023/08/15 07:06:04;;;;;;;;;;;;;;;28.42;48.98;97107.66;4205732;28;5681;-68
2023/08/15 07:08:08;;;;;;;;;;;;;;;28.41;48.96;97116.91;4200689;28;5745;-67
2023/08/15 07:10:11;;;;;;;;;;;;;;;28.43;48.94;97127.53;4201345;28;5777;-67
2023/08/15 07:12:17;;;;;;;;;;;;;;;28.46;48.78;97124.19;4202184;28;5783;-67
2023/08/15 07:14:21;;;;;;;;;;;;;;;28.46;48.63;97124.19;4194414;28;5695;-67
2023/08/15 07:16:24;;;;;;;;;;;;;;;28.48;48.81;97127.41;4210466;28;5103;-67
2023/08/15 07:18:27;;;;;;;;;;;;;;;28.50;48.68;97119.75;4212906;28;5668;-67
2023/08/15 07:20:30;;;;;;;;;;;;;;;28.51;48.65;97126.00;4204082;28;5691;-67
2023/08/15 07:22:36;;;;;;;;;;;;;;;28.51;48.79;97126.00;4209300;28;5527;-67
2023/08/15 07:24:41;;;;;;;;;;;;;;;28.50;48.54;97125.19;4209563;28;5728;-68
2023/08/15 07:26:44;;;;;;;;;;;;;;;28.50;48.38;97118.94;4207207;28;5690;-67
2023/08/15 07:28:47;;;;;;;;;;;;;;;28.51;48.33;97131.44;4196565;28;5677;-67
2023/08/15 07:30:50;;;;;;;;;;;;;;;28.50;48.14;97124.38;4209551;28;5755;-67
2023/08/15 07:32:55;;;;;;;;;;;;;;;28.51;48.02;97126.00;4208589;28;5668;-67
2023/08/15 07:34:58;;;;;;;;;;;;;;;28.50;47.77;97130.63;4202387;28;5925;-67
2023/08/15 07:37:00;;;;;;;;;;;;;;;28.51;47.70;97132.25;4199718;28;5988;-68
2023/08/15 07:39:05;;;;;;;;;;;;;;;28.51;47.67;97126.81;4202221;28;5687;-68
2023/08/15 07:41:09;;;;;;;;;;;;;;;28.52;47.62;97133.03;4187012;28;5869;-67
2023/08/15 07:43:12;;;;;;;;;;;;;;;28.54;47.48;97120.78;4201265;28;5683;-67
2023/08/15 07:45:15;;;;;;;;;;;;;;;28.55;47.65;97118.88;4210513;28;5676;-67
2023/08/15 07:47:18;;;;;;;;;;;;;;;28.58;47.18;97120.97;4210635;28;6427;-67
2023/08/15 07:49:21;;;;;;;;;;;;;;;28.59;47.41;97117.16;4211219;28;5657;-68
2023/08/15 07:51:24;;;;;;;;;;;;;;;28.60;47.21;97116.84;4201837;28;5731;-68
2023/08/15 07:53:27;;;;;;;;;;;;;;;28.61;47.03;97115.72;4194803;28;5731;-68
2023/08/15 07:55:30;;;;;;;;;;;;;;;28.63;47.06;97115.44;4200268;28;5723;-68
2023/08/15 07:57:36;;;;;;;;;;;;;;;28.64;46.95;97117.03;4200448;28;5790;-67
2023/08/15 07:59:41;;;;;;;;;;;;;;;28.65;46.65;97113.22;4200662;28;5938;-68
2023/08/15 08:01:44;;;;;;;;;;;;;;;28.67;47.01;97116.47;4200437;28;5934;-68
2023/08/15 08:03:47;;;;;;;;;;;;;;;28.67;46.85;97119.19;4200318;28;5778;-68
2023/08/15 08:05:51;;;;;;;;;;;;;;;28.67;47.16;97111.03;4205291;28;5744;-67
2023/08/15 08:07:54;;;;;;;;;;;;;;;28.67;47.01;97106.38;4209253;28;5692;-68
2023/08/15 08:09:57;;;;;;;;;;;;;;;28.66;47.09;97110.22;4202958;28;5691;-68
2023/08/15 08:12:00;;;;;;;;;;;;;;;28.68;47.13;97109.91;4199796;28;5703;-68
2023/08/15 08:14:05;;;;;;;;;;;;;;;28.69;47.13;97109.59;4199969;28;5686;-68
2023/08/15 08:16:08;;;;;;;;;;;;;;;28.71;46.99;97103.84;4195196;28;5092;-68
2023/08/15 08:18:11;;;;;;;;;;;;;;;28.73;47.01;97098.09;4207135;28;5744;-68
2023/08/15 08:20:16;;;;;;;;;;;;;;;28.73;47.16;97101.63;4206803;28;5782;-68
2023/08/15 08:22:20;;;;;;;;;;;;;;;28.73;47.21;97093.47;4192163;28;5103;-68
2023/08/15 08:24:23;;;;;;;;;;;;;;;28.72;47.23;97094.59;4198706;28;5683;-68
2023/08/15 08:26:26;;;;;;;;;;;;;;;28.70;47.25;97085.91;4200181;28;5694;-68
2023/08/15 08:28:29;;;;;;;;;;;;;;;28.71;47.24;97093.78;4196415;28;5924;-68
2023/08/15 08:30:34;;;;;;;;;;;;;;;28.69;46.89;97106.06;4199933;28;6640;-68
2023/08/15 08:32:39;;;;;;;;;;;;;;;28.66;46.85;97090.38;4192333;28;6060;-67
2023/08/15 08:34:42;;;;;;;;;;;;;;;28.68;46.65;97091.66;4195347;28;5716;-68
2023/08/15 08:36:45;;;;;;;;;;;;;;;28.68;46.71;97090.88;4199819;28;5803;-68
2023/08/15 08:38:48;;;;;;;;;;;;;;;28.68;46.49;97083.50;4187899;28;6547;-68
2023/08/15 08:40:51;;;;;;;;;;;;;;;28.66;45.88;97079.50;4196091;28;5794;-68
2023/08/15 08:42:54;;;;;;;;;;;;;;;28.67;45.89;97081.09;4197729;28;5786;-68
2023/08/15 08:44:58;;;;;;;;;;;;;;;28.67;45.68;97090.06;4208088;28;6683;-68
2023/08/15 08:47:08;;;;;;;;;;;;;;;28.67;45.46;97086.53;4194673;28;5863;-68
2023/08/15 08:49:12;;;;;;;;;;;;;;;28.67;45.17;97091.97;4192729;28;5837;-68
2023/08/15 08:51:16;;;;;;;;;;;;;;;28.66;44.93;97080.28;4198067;28;6377;-68
2023/08/15 08:53:19;;;;;;;;;;;;;;;28.66;44.42;97074.84;4198939;28;5822;-68
2023/08/15 08:55:25;;;;;;;;;;;;;;;28.66;44.15;97080.28;4199228;28;5801;-68
2023/08/15 08:57:32;;;;;;;;;;;;;;;28.66;43.71;97080.28;4207787;28;5790;-68
2023/08/15 08:59:40;;;;;;;;;;;;;;;28.64;43.39;97078.97;4193311;28;5889;-67
2023/08/15 09:01:44;;;;;;;;;;;;;;;28.63;43.33;97082.78;4199642;28;5780;-67
2023/08/15 09:03:48;;;;;;;;;;;;;;;28.62;43.00;97073.81;4191006;28;5695;-67
2023/08/15 09:05:52;;;;;;;;;;;;;;;28.64;42.77;97076.25;4199367;28;5691;-67
2023/08/15 09:07:55;;;;;;;;;;;;;;;28.64;42.54;97070.81;4199320;28;5782;-67
2023/08/15 09:09:58;;;;;;;;;;;;;;;28.61;41.91;97072.22;4199297;28;5687;-67
2023/08/15 09:12:00;;;;;;;;;;;;;;;28.60;41.74;97072.53;4199166;28;5757;-68
2023/08/15 09:14:03;;;;;;;;;;;;;;;28.60;41.69;97072.53;4195475;28;5692;-67
2023/08/15 09:16:06;;;;;;;;;;;;;;;28.62;41.56;97065.66;4199068;28;5667;-67
2023/08/15 09:18:09;;;;;;;;;;;;;;;28.65;41.34;97066.97;4195688;28;5774;-64
2023/08/15 09:20:15;;;;;;;;;;;;;;;28.69;41.51;97068.00;4198766;28;5766;-64
2023/08/15 09:22:21;;;;;;;;;;;;;;;28.71;41.16;97060.34;4207371;28;5858;-64
2023/08/15 09:24:28;;;;;;;;;;;;;;;28.76;40.79;97059.41;4201918;28;5798;-64
2023/08/15 09:26:33;;;;;;;;;;;;;;;28.75;40.88;97053.16;4197705;28;6388;-64
2023/08/15 09:28:40;;;;;;;;;;;;;;;28.79;40.62;97056.91;4199453;28;5829;-63
2023/08/15 09:30:51;;;;;;;;;;;;;;;28.82;40.59;97047.31;4194313;28;5807;-64
2023/08/15 09:32:54;;;;;;;;;;;;;;;28.84;40.28;97062.22;4200118;28;5758;-64
2023/08/15 09:34:57;;;;;;;;;;;;;;;28.85;39.54;97061.13;4198454;28;5682;-64
2023/08/15 09:37:02;;;;;;;;;;;;;;;28.87;40.03;97058.09;4193175;28;5866;-67
2023/08/15 09:39:08;;;;;;;;;;;;;;;28.84;39.40;97067.66;4197062;28;5782;-65
2023/08/15 09:41:12;;;;;;;;;;;;;;;28.87;39.40;97071.69;4198724;28;5220;-67
2023/08/15 09:43:16;;;;;;;;;;;;;;;28.88;39.20;97068.72;4198375;28;5832;-69
2023/08/15 09:45:19;;;;;;;;;;;;;;;28.88;39.29;97067.88;4190962;28;5861;-64
2023/08/15 09:47:22;;;;;;;;;;;;;;;28.89;39.30;97062.16;4191417;28;5822;-64
2023/08/15 09:49:27;;;;;;;;;;;;;;;28.90;38.99;97062.97;4195332;28;5922;-66
2023/08/15 09:51:30;;;;;;;;;;;;;;;28.91;38.90;97070.81;4191050;28;5899;-64
2023/08/15 09:53:38;;;;;;;;;;;;;;;28.94;39.14;97064.78;4194956;28;5096;-64
2023/08/15 09:55:41;;;;;;;;;;;;;;;28.94;39.29;97074.84;4194830;28;5897;-64
2023/08/15 09:57:45;;;;;;;;;;;;;;;28.92;39.26;97077.06;4201223;28;5809;-64
2023/08/15 09:59:48;;;;;;;;;;;;;;;28.91;39.15;97076.28;4195552;28;5690;-64
2023/08/15 10:01:54;;;;;;;;;;;;;;;28.91;39.30;97081.72;4195856;28;5852;-64
2023/08/15 10:04:00;;;;;;;;;;;;;;;28.93;39.46;97084.13;4197602;28;5691;-64
2023/08/15 10:06:03;;;;;;;;;;;;;;;28.94;39.39;97075.66;4198148;28;5847;-64
2023/08/15 10:08:07;;;;;;;;;;;;;;;28.98;39.73;97076.66;4198910;28;5737;-64
2023/08/15 10:10:12;;;;;;;;;;;;;;;29.00;39.79;97084.53;4198915;28;5785;-63
2023/08/15 10:12:15;;;;;;;;;;;;;;;29.04;39.65;97079.28;4198377;28;5707;-64
2023/08/15 10:14:20;;;;;;;;;;;;;;;29.03;39.86;97077.66;4185978;28;5718;-64
2023/08/15 10:16:23;;;;;;;;;;;;;;;29.04;39.72;97071.09;4190970;28;5771;-63
2023/08/15 10:18:25;;;;;;;;;;;;;;;29.05;39.81;97075.44;4193147;28;5802;-64
2023/08/15 10:20:36;;;;;;;;;;;;;;;29.07;39.46;97068.56;4210503;28;5079;-63
2023/08/15 10:22:40;;;;;;;;;;;;;;;29.07;38.41;97084.09;4202349;28;5707;-63
2023/08/15 10:24:43;;;;;;;;;;;;;;;29.08;38.47;97088.44;4197148;28;5808;-63
2023/08/15 10:26:48;;;;;;;;;;;;;;;29.09;38.58;97077.22;4188070;28;5715;-63
2023/08/15 10:28:52;;;;;;;;;;;;;;;29.10;38.41;97084.28;4205078;28;5796;-63
2023/08/15 10:30:55;;;;;;;;;;;;;;;29.11;38.41;97079.66;4193224;28;5832;-63
2023/08/15 10:32:59;;;;;;;;;;;;;;;29.13;38.66;97085.63;4201568;28;5879;-64
2023/08/15 10:35:05;;;;;;;;;;;;;;;29.15;38.91;97075.22;4196910;28;6050;-62
2023/08/15 10:37:28;;;;;;;;;;;;;;;29.20;39.11;97092.22;4192648;28;5822;-64
2023/08/15 10:39:37;;;;;;;;;;;;;;;29.22;39.45;97086.47;4187497;28;5767;-63
2023/08/15 10:41:42;;;;;;;;;;;;;;;29.26;39.20;97082.06;4191387;28;5801;-63
2023/08/15 10:43:51;;;;;;;;;;;;;;;29.28;39.34;97079.81;4194009;28;5880;-63
2023/08/15 10:45:56;;;;;;;;;;;;;;;29.30;39.42;97080.31;4196684;28;5778;-62
2023/08/15 10:48:00;;;;;;;;;;;;;;;29.33;39.18;97079.69;4204466;28;5827;-71
2023/08/15 10:50:06;;;;;;;;;;;;;;;29.34;39.26;97067.72;4200563;28;5801;-62
2023/08/15 10:52:09;;;;;;;;;;;;;;;29.34;39.29;97067.72;4201934;28;5830;-63
2023/08/15 10:54:14;;;;;;;;;;;;;;;29.37;39.31;97056.19;4195769;28;5683;-62